sensor_id;sensor_type;location;lat;lon;timestamp;P1;durP1;ratioP1;P2;durP2;ratioP2
24995;SDS011;13016;52.162;21.034;2023-03-05T00:03:04;15.50;;;7.40;;
24995;SDS011;13016;52.162;21.034;2023-03-05T00:06:36;16.10;;;7.40;;
24995;SDS011;13016;52.162;21.034;2023-03-05T00:24:27;15.90;;;7.10;;
24995;SDS011;13016;52.162;21.034;2023-03-05T00:31:47;16.20;;;6.50;;
24995;SDS011;13016;52.162;21.034;2023-03-05T00:45:22;18.50;;;7.40;;
24995;SDS011;13016;52.162;21.034;2023-03-05T00:48:11;14.00;;;6.20;;
24995;SDS011;13016;52.162;21.034;2023-03-05T00:50:51;14.30;;;6.10;;
24995;SDS011;13016;52.162;21.034;2023-03-05T00:56:30;13.40;;;6.00;;
24995;SDS011;13016;52.162;21.034;2023-03-05T01:14:14;15.70;;;6.60;;
24995;SDS011;13016;52.162;21.034;2023-03-05T01:28:23;13.40;;;6.80;;
24995;SDS011;13016;52.162;21.034;2023-03-05T01:56:52;12.50;;;6.50;;
24995;SDS011;13016;52.162;21.034;2023-03-05T02:00:57;12.40;;;5.90;;
24995;SDS011;13016;52.162;21.034;2023-03-05T02:32:19;13.10;;;6.40;;
24995;SDS011;13016;52.162;21.034;2023-03-05T02:45:56;16.30;;;7.20;;
24995;SDS011;13016;52.162;21.034;2023-03-05T02:49:07;15.00;;;6.90;;
24995;SDS011;13016;52.162;21.034;2023-03-05T03:03:06;13.30;;;6.70;;
24995;SDS011;13016;52.162;21.034;2023-03-05T03:16:47;12.20;;;6.10;;
24995;SDS011;13016;52.162;21.034;2023-03-05T03:30:38;15.30;;;6.10;;
24995;SDS011;13016;52.162;21.034;2023-03-05T03:36:05;12.70;;;5.60;;
24995;SDS011;13016;52.162;21.034;2023-03-05T04:08:01;12.10;;;5.90;;
24995;SDS011;13016;52.162;21.034;2023-03-05T06:26:41;6.80;;;3.30;;
24995;SDS011;13016;52.162;21.034;2023-03-05T07:11:30;5.00;;;3.00;;
24995;SDS011;13016;52.162;21.034;2023-03-05T07:16:44;8.00;;;3.40;;
24995;SDS011;13016;52.162;21.034;2023-03-05T07:19:34;6.70;;;3.10;;
24995;SDS011;13016;52.162;21.034;2023-03-05T07:22:12;6.80;;;3.20;;
24995;SDS011;13016;52.162;21.034;2023-03-05T07:26:10;7.30;;;3.50;;
24995;SDS011;13016;52.162;21.034;2023-03-05T07:33:14;6.10;;;3.20;;
24995;SDS011;13016;52.162;21.034;2023-03-05T07:39:02;7.50;;;3.30;;
24995;SDS011;13016;52.162;21.034;2023-03-05T07:41:40;7.50;;;3.20;;
24995;SDS011;13016;52.162;21.034;2023-03-05T07:44:19;6.40;;;3.50;;
24995;SDS011;13016;52.162;21.034;2023-03-05T07:59:23;8.30;;;3.50;;
24995;SDS011;13016;52.162;21.034;2023-03-05T08:02:06;6.10;;;3.50;;
24995;SDS011;13016;52.162;21.034;2023-03-05T08:04:58;7.30;;;3.20;;
24995;SDS011;13016;52.162;21.034;2023-03-05T08:07:55;6.80;;;3.60;;
24995;SDS011;13016;52.162;21.034;2023-03-05T08:37:31;8.50;;;4.00;;
24995;SDS011;13016;52.162;21.034;2023-03-05T08:40:37;11.40;;;4.80;;
24995;SDS011;13016;52.162;21.034;2023-03-05T08:48:53;10.20;;;4.30;;
24995;SDS011;13016;52.162;21.034;2023-03-05T08:51:52;8.80;;;4.30;;
24995;SDS011;13016;52.162;21.034;2023-03-05T08:55:07;8.00;;;4.50;;
24995;SDS011;13016;52.162;21.034;2023-03-05T09:09:39;10.20;;;5.70;;
24995;SDS011;13016;52.162;21.034;2023-03-05T09:12:45;11.20;;;5.40;;
24995;SDS011;13016;52.162;21.034;2023-03-05T09:15:22;13.30;;;6.30;;
24995;SDS011;13016;52.162;21.034;2023-03-05T09:18:38;11.00;;;6.00;;
24995;SDS011;13016;52.162;21.034;2023-03-05T09:21:25;9.20;;;5.30;;
24995;SDS011;13016;52.162;21.034;2023-03-05T10:23:20;12.70;;;6.90;;
24995;SDS011;13016;52.162;21.034;2023-03-05T10:25:53;13.20;;;6.40;;
24995;SDS011;13016;52.162;21.034;2023-03-05T10:31:36;14.80;;;7.10;;
24995;SDS011;13016;52.162;21.034;2023-03-05T10:49:49;11.20;;;6.50;;
24995;SDS011;13016;52.162;21.034;2023-03-05T10:58:12;12.50;;;6.30;;
24995;SDS011;13016;52.162;21.034;2023-03-05T11:30:24;13.60;;;6.30;;
24995;SDS011;13016;52.162;21.034;2023-03-05T11:47:22;14.30;;;6.70;;
24995;SDS011;13016;52.162;21.034;2023-03-05T11:50:12;9.50;;;5.90;;
24995;SDS011;13016;52.162;21.034;2023-03-05T11:57:13;14.20;;;6.70;;
24995;SDS011;13016;52.162;21.034;2023-03-05T12:14:43;8.90;;;3.90;;
24995;SDS011;13016;52.162;21.034;2023-03-05T12:17:10;7.40;;;3.30;;
24995;SDS011;13016;52.162;21.034;2023-03-05T12:22:31;7.20;;;3.10;;
24995;SDS011;13016;52.162;21.034;2023-03-05T12:28:00;8.50;;;3.40;;
24995;SDS011;13016;52.162;21.034;2023-03-05T12:33:54;5.40;;;2.70;;
24995;SDS011;13016;52.162;21.034;2023-03-05T13:04:11;8.10;;;3.70;;
24995;SDS011;13016;52.162;21.034;2023-03-05T13:11:17;9.40;;;3.80;;
24995;SDS011;13016;52.162;21.034;2023-03-05T13:13:49;8.30;;;4.40;;
24995;SDS011;13016;52.162;21.034;2023-03-05T13:16:29;8.30;;;4.70;;
24995;SDS011;13016;52.162;21.034;2023-03-05T13:29:51;7.40;;;4.10;;
24995;SDS011;13016;52.162;21.034;2023-03-05T13:52:31;7.10;;;3.40;;
24995;SDS011;13016;52.162;21.034;2023-03-05T13:55:45;9.20;;;4.30;;
24995;SDS011;13016;52.162;21.034;2023-03-05T14:08:35;8.10;;;4.40;;
24995;SDS011;13016;52.162;21.034;2023-03-05T14:43:08;8.00;;;4.00;;
24995;SDS011;13016;52.162;21.034;2023-03-05T14:56:42;6.60;;;4.20;;
24995;SDS011;13016;52.162;21.034;2023-03-05T14:59:58;8.10;;;4.20;;
24995;SDS011;13016;52.162;21.034;2023-03-05T15:02:35;7.40;;;4.10;;
24995;SDS011;13016;52.162;21.034;2023-03-05T15:05:11;7.90;;;4.40;;
24995;SDS011;13016;52.162;21.034;2023-03-05T15:29:00;9.90;;;4.80;;
24995;SDS011;13016;52.162;21.034;2023-03-05T15:43:38;9.70;;;5.40;;
24995;SDS011;13016;52.162;21.034;2023-03-05T16:01:04;11.10;;;5.90;;
24995;SDS011;13016;52.162;21.034;2023-03-05T16:04:02;11.10;;;5.30;;
24995;SDS011;13016;52.162;21.034;2023-03-05T16:06:27;8.70;;;5.80;;
24995;SDS011;13016;52.162;21.034;2023-03-05T16:08:54;9.50;;;5.50;;
24995;SDS011;13016;52.162;21.034;2023-03-05T16:11:31;10.10;;;5.50;;
24995;SDS011;13016;52.162;21.034;2023-03-05T16:14:00;12.10;;;5.20;;
24995;SDS011;13016;52.162;21.034;2023-03-05T16:16:30;9.30;;;5.60;;
24995;SDS011;13016;52.162;21.034;2023-03-05T16:18:57;12.00;;;5.60;;
24995;SDS011;13016;52.162;21.034;2023-03-05T16:21:22;11.50;;;5.90;;
24995;SDS011;13016;52.162;21.034;2023-03-05T16:23:48;10.50;;;6.40;;
24995;SDS011;13016;52.162;21.034;2023-03-05T16:26:14;12.50;;;6.70;;
24995;SDS011;13016;52.162;21.034;2023-03-05T16:29:03;11.20;;;6.00;;
24995;SDS011;13016;52.162;21.034;2023-03-05T16:31:29;14.40;;;6.50;;
24995;SDS011;13016;52.162;21.034;2023-03-05T16:33:56;12.60;;;6.20;;
24995;SDS011;13016;52.162;21.034;2023-03-05T16:36:22;13.60;;;6.80;;
24995;SDS011;13016;52.162;21.034;2023-03-05T16:38:57;13.30;;;6.20;;
24995;SDS011;13016;52.162;21.034;2023-03-05T16:41:23;13.50;;;6.40;;
24995;SDS011;13016;52.162;21.034;2023-03-05T16:43:50;16.10;;;6.80;;
24995;SDS011;13016;52.162;21.034;2023-03-05T16:46:17;15.30;;;6.70;;
24995;SDS011;13016;52.162;21.034;2023-03-05T16:48:42;13.40;;;7.10;;
24995;SDS011;13016;52.162;21.034;2023-03-05T16:51:08;12.10;;;6.50;;
24995;SDS011;13016;52.162;21.034;2023-03-05T16:53:37;16.80;;;6.90;;
24995;SDS011;13016;52.162;21.034;2023-03-05T16:56:24;14.80;;;7.30;;
24995;SDS011;13016;52.162;21.034;2023-03-05T16:58:49;16.00;;;6.70;;
24995;SDS011;13016;52.162;21.034;2023-03-05T17:01:16;15.50;;;7.50;;
24995;SDS011;13016;52.162;21.034;2023-03-05T17:03:44;14.00;;;7.50;;
24995;SDS011;13016;52.162;21.034;2023-03-05T17:06:16;14.70;;;8.00;;
24995;SDS011;13016;52.162;21.034;2023-03-05T17:08:53;13.60;;;7.90;;
24995;SDS011;13016;52.162;21.034;2023-03-05T17:11:22;15.90;;;8.00;;
24995;SDS011;13016;52.162;21.034;2023-03-05T17:13:48;13.40;;;7.30;;
24995;SDS011;13016;52.162;21.034;2023-03-05T17:16:14;14.60;;;7.60;;
24995;SDS011;13016;52.162;21.034;2023-03-05T17:18:41;18.90;;;8.40;;
24995;SDS011;13016;52.162;21.034;2023-03-05T17:21:06;15.80;;;8.90;;
24995;SDS011;13016;52.162;21.034;2023-03-05T17:23:33;16.90;;;8.70;;
24995;SDS011;13016;52.162;21.034;2023-03-05T17:26:02;17.40;;;9.10;;
24995;SDS011;13016;52.162;21.034;2023-03-05T17:28:48;18.50;;;9.90;;
24995;SDS011;13016;52.162;21.034;2023-03-05T17:31:13;18.70;;;9.00;;
24995;SDS011;13016;52.162;21.034;2023-03-05T17:33:39;17.50;;;9.10;;
24995;SDS011;13016;52.162;21.034;2023-03-05T17:36:15;19.40;;;9.30;;
24995;SDS011;13016;52.162;21.034;2023-03-05T17:38:43;18.80;;;9.30;;
24995;SDS011;13016;52.162;21.034;2023-03-05T17:41:10;18.90;;;9.90;;
24995;SDS011;13016;52.162;21.034;2023-03-05T17:43:36;18.20;;;9.40;;
24995;SDS011;13016;52.162;21.034;2023-03-05T17:46:01;18.70;;;9.90;;
24995;SDS011;13016;52.162;21.034;2023-03-05T17:48:27;18.50;;;10.30;;
24995;SDS011;13016;52.162;21.034;2023-03-05T17:50:53;17.70;;;10.40;;
24995;SDS011;13016;52.162;21.034;2023-03-05T17:53:18;21.20;;;10.40;;
24995;SDS011;13016;52.162;21.034;2023-03-05T17:55:46;16.20;;;9.40;;
24995;SDS011;13016;52.162;21.034;2023-03-05T17:58:11;16.80;;;9.50;;
24995;SDS011;13016;52.162;21.034;2023-03-05T18:00:36;20.50;;;10.50;;
24995;SDS011;13016;52.162;21.034;2023-03-05T18:03:02;22.30;;;11.40;;
24995;SDS011;13016;52.162;21.034;2023-03-05T18:05:28;25.00;;;13.30;;
24995;SDS011;13016;52.162;21.034;2023-03-05T18:07:58;27.20;;;16.30;;
24995;SDS011;13016;52.162;21.034;2023-03-05T18:10:24;23.40;;;11.80;;
24995;SDS011;13016;52.162;21.034;2023-03-05T18:12:50;20.50;;;11.30;;
24995;SDS011;13016;52.162;21.034;2023-03-05T18:15:19;22.50;;;11.60;;
24995;SDS011;13016;52.162;21.034;2023-03-05T18:17:53;25.70;;;12.50;;
24995;SDS011;13016;52.162;21.034;2023-03-05T18:20:26;24.00;;;12.30;;
24995;SDS011;13016;52.162;21.034;2023-03-05T18:22:55;25.70;;;13.10;;
24995;SDS011;13016;52.162;21.034;2023-03-05T18:25:24;22.80;;;12.20;;
24995;SDS011;13016;52.162;21.034;2023-03-05T18:27:51;23.20;;;12.70;;
24995;SDS011;13016;52.162;21.034;2023-03-05T18:30:17;25.60;;;13.00;;
24995;SDS011;13016;52.162;21.034;2023-03-05T18:32:42;22.90;;;12.90;;
24995;SDS011;13016;52.162;21.034;2023-03-05T18:35:07;22.50;;;12.40;;
24995;SDS011;13016;52.162;21.034;2023-03-05T18:37:33;26.10;;;13.50;;
24995;SDS011;13016;52.162;21.034;2023-03-05T18:39:58;23.60;;;12.80;;
24995;SDS011;13016;52.162;21.034;2023-03-05T18:42:24;21.70;;;12.00;;
24995;SDS011;13016;52.162;21.034;2023-03-05T18:44:49;23.70;;;12.10;;
24995;SDS011;13016;52.162;21.034;2023-03-05T18:47:34;23.80;;;12.20;;
24995;SDS011;13016;52.162;21.034;2023-03-05T18:50:01;27.60;;;13.70;;
24995;SDS011;13016;52.162;21.034;2023-03-05T18:52:26;20.50;;;12.30;;
24995;SDS011;13016;52.162;21.034;2023-03-05T18:54:51;27.20;;;13.50;;
24995;SDS011;13016;52.162;21.034;2023-03-05T18:57:17;26.80;;;13.40;;
24995;SDS011;13016;52.162;21.034;2023-03-05T18:59:42;26.40;;;13.10;;
24995;SDS011;13016;52.162;21.034;2023-03-05T19:02:14;24.90;;;13.40;;
24995;SDS011;13016;52.162;21.034;2023-03-05T19:04:40;26.90;;;13.40;;
24995;SDS011;13016;52.162;21.034;2023-03-05T19:07:06;26.70;;;13.60;;
24995;SDS011;13016;52.162;21.034;2023-03-05T19:09:34;26.30;;;13.70;;
24995;SDS011;13016;52.162;21.034;2023-03-05T19:12:03;27.80;;;14.30;;
24995;SDS011;13016;52.162;21.034;2023-03-05T19:14:29;22.50;;;13.60;;
24995;SDS011;13016;52.162;21.034;2023-03-05T19:16:54;25.30;;;13.70;;
24995;SDS011;13016;52.162;21.034;2023-03-05T19:19:19;28.30;;;14.80;;
24995;SDS011;13016;52.162;21.034;2023-03-05T19:21:45;27.90;;;14.50;;
24995;SDS011;13016;52.162;21.034;2023-03-05T19:24:16;26.30;;;14.70;;
24995;SDS011;13016;52.162;21.034;2023-03-05T19:26:41;29.20;;;15.10;;
24995;SDS011;13016;52.162;21.034;2023-03-05T19:29:07;27.90;;;16.00;;
24995;SDS011;13016;52.162;21.034;2023-03-05T19:31:34;30.40;;;16.10;;
24995;SDS011;13016;52.162;21.034;2023-03-05T19:34:00;33.00;;;16.10;;
24995;SDS011;13016;52.162;21.034;2023-03-05T19:36:39;29.90;;;14.70;;
24995;SDS011;13016;52.162;21.034;2023-03-05T19:39:05;28.10;;;15.80;;
24995;SDS011;13016;52.162;21.034;2023-03-05T19:41:31;32.70;;;15.20;;
24995;SDS011;13016;52.162;21.034;2023-03-05T19:43:57;28.10;;;15.80;;
24995;SDS011;13016;52.162;21.034;2023-03-05T19:46:22;27.80;;;15.20;;
24995;SDS011;13016;52.162;21.034;2023-03-05T19:48:48;29.20;;;15.80;;
24995;SDS011;13016;52.162;21.034;2023-03-05T19:51:14;29.30;;;16.40;;
24995;SDS011;13016;52.162;21.034;2023-03-05T19:53:51;30.70;;;16.90;;
24995;SDS011;13016;52.162;21.034;2023-03-05T19:56:17;29.60;;;16.10;;
24995;SDS011;13016;52.162;21.034;2023-03-05T19:58:43;31.70;;;17.50;;
24995;SDS011;13016;52.162;21.034;2023-03-05T20:01:14;29.50;;;15.80;;
24995;SDS011;13016;52.162;21.034;2023-03-05T20:03:50;29.80;;;16.30;;
24995;SDS011;13016;52.162;21.034;2023-03-05T20:06:20;28.70;;;16.20;;
24995;SDS011;13016;52.162;21.034;2023-03-05T20:08:58;30.90;;;17.30;;
24995;SDS011;13016;52.162;21.034;2023-03-05T20:11:47;30.90;;;15.90;;
24995;SDS011;13016;52.162;21.034;2023-03-05T20:14:12;31.40;;;16.70;;
24995;SDS011;13016;52.162;21.034;2023-03-05T20:16:38;49.60;;;26.80;;
24995;SDS011;13016;52.162;21.034;2023-03-05T20:19:23;33.20;;;18.00;;
24995;SDS011;13016;52.162;21.034;2023-03-05T20:21:49;32.30;;;16.60;;
24995;SDS011;13016;52.162;21.034;2023-03-05T20:24:15;25.70;;;15.20;;
24995;SDS011;13016;52.162;21.034;2023-03-05T20:26:42;32.50;;;16.90;;
24995;SDS011;13016;52.162;21.034;2023-03-05T20:29:09;25.70;;;15.40;;
24995;SDS011;13016;52.162;21.034;2023-03-05T20:31:35;28.90;;;16.40;;
24995;SDS011;13016;52.162;21.034;2023-03-05T20:34:02;32.10;;;17.10;;
24995;SDS011;13016;52.162;21.034;2023-03-05T20:36:28;32.50;;;17.40;;
24995;SDS011;13016;52.162;21.034;2023-03-05T20:38:54;31.80;;;16.90;;
24995;SDS011;13016;52.162;21.034;2023-03-05T20:41:19;32.40;;;16.40;;
24995;SDS011;13016;52.162;21.034;2023-03-05T20:43:45;29.20;;;16.40;;
24995;SDS011;13016;52.162;21.034;2023-03-05T20:46:18;27.40;;;15.90;;
24995;SDS011;13016;52.162;21.034;2023-03-05T20:49:27;27.90;;;16.20;;
24995;SDS011;13016;52.162;21.034;2023-03-05T20:52:00;32.60;;;17.10;;
24995;SDS011;13016;52.162;21.034;2023-03-05T20:54:26;28.70;;;16.20;;
24995;SDS011;13016;52.162;21.034;2023-03-05T20:56:51;32.20;;;16.50;;
24995;SDS011;13016;52.162;21.034;2023-03-05T20:59:16;29.00;;;15.40;;
24995;SDS011;13016;52.162;21.034;2023-03-05T21:01:41;26.80;;;16.30;;
24995;SDS011;13016;52.162;21.034;2023-03-05T21:04:06;27.90;;;15.90;;
24995;SDS011;13016;52.162;21.034;2023-03-05T21:06:33;29.40;;;15.70;;
24995;SDS011;13016;52.162;21.034;2023-03-05T21:08:59;29.10;;;15.50;;
24995;SDS011;13016;52.162;21.034;2023-03-05T21:11:44;29.60;;;14.90;;
24995;SDS011;13016;52.162;21.034;2023-03-05T21:14:19;26.40;;;15.20;;
24995;SDS011;13016;52.162;21.034;2023-03-05T21:16:45;32.50;;;15.60;;
24995;SDS011;13016;52.162;21.034;2023-03-05T21:19:15;32.20;;;15.90;;
24995;SDS011;13016;52.162;21.034;2023-03-05T21:21:46;27.30;;;15.70;;
24995;SDS011;13016;52.162;21.034;2023-03-05T21:24:19;30.80;;;15.90;;
24995;SDS011;13016;52.162;21.034;2023-03-05T21:27:00;26.50;;;15.00;;
24995;SDS011;13016;52.162;21.034;2023-03-05T21:29:25;27.70;;;15.80;;
24995;SDS011;13016;52.162;21.034;2023-03-05T21:31:50;28.20;;;14.70;;
24995;SDS011;13016;52.162;21.034;2023-03-05T21:34:16;23.60;;;13.80;;
24995;SDS011;13016;52.162;21.034;2023-03-05T21:36:41;25.40;;;14.70;;
24995;SDS011;13016;52.162;21.034;2023-03-05T21:39:06;25.00;;;13.90;;
24995;SDS011;13016;52.162;21.034;2023-03-05T21:41:31;29.10;;;14.50;;
24995;SDS011;13016;52.162;21.034;2023-03-05T21:43:57;27.70;;;14.20;;
24995;SDS011;13016;52.162;21.034;2023-03-05T21:46:22;28.90;;;14.60;;
24995;SDS011;13016;52.162;21.034;2023-03-05T21:48:47;27.00;;;14.70;;
24995;SDS011;13016;52.162;21.034;2023-03-05T21:51:13;26.30;;;14.60;;
24995;SDS011;13016;52.162;21.034;2023-03-05T21:53:38;27.40;;;14.90;;
24995;SDS011;13016;52.162;21.034;2023-03-05T21:56:07;27.10;;;14.00;;
24995;SDS011;13016;52.162;21.034;2023-03-05T21:58:35;26.00;;;14.40;;
24995;SDS011;13016;52.162;21.034;2023-03-05T22:01:01;28.00;;;14.10;;
24995;SDS011;13016;52.162;21.034;2023-03-05T22:03:26;25.50;;;13.60;;
24995;SDS011;13016;52.162;21.034;2023-03-05T22:05:52;27.30;;;14.50;;
24995;SDS011;13016;52.162;21.034;2023-03-05T22:08:19;29.00;;;14.20;;
24995;SDS011;13016;52.162;21.034;2023-03-05T22:10:45;26.30;;;14.10;;
24995;SDS011;13016;52.162;21.034;2023-03-05T22:13:10;25.40;;;14.40;;
24995;SDS011;13016;52.162;21.034;2023-03-05T22:15:43;26.50;;;14.60;;
24995;SDS011;13016;52.162;21.034;2023-03-05T22:18:14;25.90;;;14.40;;
24995;SDS011;13016;52.162;21.034;2023-03-05T22:20:42;27.60;;;14.90;;
24995;SDS011;13016;52.162;21.034;2023-03-05T22:23:08;24.90;;;13.80;;
24995;SDS011;13016;52.162;21.034;2023-03-05T22:25:34;27.10;;;14.70;;
24995;SDS011;13016;52.162;21.034;2023-03-05T22:27:59;29.70;;;15.30;;
24995;SDS011;13016;52.162;21.034;2023-03-05T22:30:25;24.00;;;13.60;;
24995;SDS011;13016;52.162;21.034;2023-03-05T22:32:50;24.50;;;13.90;;
24995;SDS011;13016;52.162;21.034;2023-03-05T22:35:15;25.00;;;13.70;;
24995;SDS011;13016;52.162;21.034;2023-03-05T22:37:41;29.30;;;15.10;;
24995;SDS011;13016;52.162;21.034;2023-03-05T22:40:13;23.10;;;12.90;;
24995;SDS011;13016;52.162;21.034;2023-03-05T22:42:40;27.70;;;14.40;;
24995;SDS011;13016;52.162;21.034;2023-03-05T22:45:06;22.90;;;13.70;;
24995;SDS011;13016;52.162;21.034;2023-03-05T22:47:33;22.00;;;13.70;;
24995;SDS011;13016;52.162;21.034;2023-03-05T22:49:58;24.90;;;14.80;;
24995;SDS011;13016;52.162;21.034;2023-03-05T22:52:24;29.00;;;15.60;;
24995;SDS011;13016;52.162;21.034;2023-03-05T22:54:50;27.80;;;15.80;;
24995;SDS011;13016;52.162;21.034;2023-03-05T22:57:15;33.50;;;15.90;;
24995;SDS011;13016;52.162;21.034;2023-03-05T22:59:40;29.40;;;16.70;;
24995;SDS011;13016;52.162;21.034;2023-03-05T23:02:06;30.60;;;15.80;;
24995;SDS011;13016;52.162;21.034;2023-03-05T23:04:41;26.50;;;14.10;;
24995;SDS011;13016;52.162;21.034;2023-03-05T23:07:10;27.10;;;14.60;;
24995;SDS011;13016;52.162;21.034;2023-03-05T23:09:35;27.20;;;14.40;;
24995;SDS011;13016;52.162;21.034;2023-03-05T23:12:01;27.60;;;15.40;;
24995;SDS011;13016;52.162;21.034;2023-03-05T23:14:27;26.80;;;15.40;;
24995;SDS011;13016;52.162;21.034;2023-03-05T23:16:53;31.90;;;16.20;;
24995;SDS011;13016;52.162;21.034;2023-03-05T23:19:19;28.40;;;15.10;;
24995;SDS011;13016;52.162;21.034;2023-03-05T23:21:44;29.30;;;14.90;;
24995;SDS011;13016;52.162;21.034;2023-03-05T23:24:10;28.10;;;14.90;;
24995;SDS011;13016;52.162;21.034;2023-03-05T23:26:35;28.10;;;15.00;;
24995;SDS011;13016;52.162;21.034;2023-03-05T23:29:00;26.60;;;15.10;;
24995;SDS011;13016;52.162;21.034;2023-03-05T23:31:26;30.70;;;15.40;;
24995;SDS011;13016;52.162;21.034;2023-03-05T23:33:51;27.10;;;14.90;;
24995;SDS011;13016;52.162;21.034;2023-03-05T23:36:17;28.30;;;15.00;;
24995;SDS011;13016;52.162;21.034;2023-03-05T23:38:42;28.50;;;14.20;;
24995;SDS011;13016;52.162;21.034;2023-03-05T23:41:07;28.10;;;15.00;;
24995;SDS011;13016;52.162;21.034;2023-03-05T23:43:33;30.00;;;16.50;;
24995;SDS011;13016;52.162;21.034;2023-03-05T23:45:59;32.20;;;16.80;;
24995;SDS011;13016;52.162;21.034;2023-03-05T23:48:24;47.70;;;27.40;;
24995;SDS011;13016;52.162;21.034;2023-03-05T23:50:50;31.20;;;16.90;;
24995;SDS011;13016;52.162;21.034;2023-03-05T23:53:20;29.00;;;15.60;;
24995;SDS011;13016;52.162;21.034;2023-03-05T23:55:49;29.40;;;14.60;;
24995;SDS011;13016;52.162;21.034;2023-03-05T23:58:15;27.60;;;14.20;;
